Time;durP1;ratioP1;P1;durP2;ratioP2;P2;SDS_P1;SDS_P2;PMS_P1;PMS_P2;Temp;Humidity;BMP_temperature;BMP_pressure;BME280_temperature;BME280_humidity;BME280_pressure;Samples;Min_cycle;Max_cycle;Signal;HPM_P1;HPM_P2
2023/01/21 00:02:04;;;;;;;82.28;50.05;;;-0.30;99.90;;;;;;5106398;28;20032;-68
2023/01/21 00:04:33;;;;;;;73.63;45.80;;;0.10;99.90;;;;;;5096659;28;20119;-68
2023/01/21 00:06:59;;;;;;;65.15;42.65;;;-0.40;99.90;;;;;;5079479;28;20763;-68
2023/01/21 00:09:25;;;;;;;65.88;42.10;;;-0.30;99.90;;;;;;5108179;28;20393;-68
2023/01/21 00:11:51;;;;;;;62.67;40.00;;;-0.50;99.90;;;;;;5095792;28;20043;-68
2023/01/21 00:14:16;;;;;;;55.13;36.53;;;0.10;99.90;;;;;;5090339;28;20051;-67
2023/01/21 00:16:42;;;;;;;59.13;35.28;;;-0.50;99.90;;;;;;5103342;28;20055;-68
2023/01/21 00:19:08;;;;;;;49.80;33.72;;;-0.60;99.90;;;;;;5113725;28;20048;-68
2023/01/21 00:21:33;;;;;;;52.80;33.38;;;-0.60;99.90;;;;;;5095741;28;20118;-71
2023/01/21 00:23:59;;;;;;;51.22;33.92;;;-0.60;99.90;;;;;;5103951;28;20072;-69
2023/01/21 00:26:25;;;;;;;51.28;32.25;;;-0.60;99.90;;;;;;5081100;28;20126;-68
2023/01/21 00:28:50;;;;;;;50.30;33.88;;;-0.60;99.90;;;;;;5112847;28;20071;-68
2023/01/21 00:31:16;;;;;;;47.63;32.58;;;-0.60;99.90;;;;;;5081458;28;20075;-68
2023/01/21 00:33:42;;;;;;;53.40;33.10;;;-0.70;99.90;;;;;;5110164;28;20408;-68
2023/01/21 00:36:10;;;;;;;56.65;34.95;;;-0.40;99.90;;;;;;5100831;28;20051;-68
2023/01/21 00:38:36;;;;;;;52.25;33.60;;;-0.60;99.90;;;;;;5101044;28;20043;-72
2023/01/21 00:41:04;;;;;;;53.05;34.85;;;-0.70;99.90;;;;;;5108288;28;20044;-68
2023/01/21 00:43:30;;;;;;;53.38;34.35;;;-0.70;99.90;;;;;;5108896;28;20047;-69
2023/01/21 00:45:56;;;;;;;53.25;34.47;;;-0.70;99.90;;;;;;5095046;28;20044;-69
2023/01/21 00:48:22;;;;;;;53.45;34.10;;;0.10;99.90;;;;;;5091900;28;20047;-71
2023/01/21 00:50:50;;;;;;;52.78;33.83;;;-0.70;99.90;;;;;;5113004;28;20091;-71
2023/01/21 00:53:17;;;;;;;52.60;34.25;;;-0.70;99.90;;;;;;5113516;28;20054;-68
2023/01/21 00:55:42;;;;;;;52.22;33.88;;;-0.80;99.90;;;;;;5110456;28;20161;-69
2023/01/21 00:58:08;;;;;;;52.58;33.95;;;-0.80;99.90;;;;;;5068995;28;20171;-67
2023/01/21 01:00:34;;;;;;;49.30;32.90;;;-0.50;99.90;;;;;;5089011;28;20051;-68
2023/01/21 01:02:59;;;;;;;49.22;33.75;;;-0.30;99.90;;;;;;5086582;28;20637;-68
2023/01/21 01:05:25;;;;;;;55.22;33.83;;;-0.80;99.90;;;;;;5094067;28;20126;-69
2023/01/21 01:07:51;;;;;;;51.85;33.78;;;-0.80;99.90;;;;;;5094481;28;20044;-68
2023/01/21 01:10:17;;;;;;;57.28;35.38;;;-0.90;99.90;;;;;;5087906;28;20675;-67
2023/01/21 01:12:42;;;;;;;55.40;35.20;;;-0.80;99.90;;;;;;5092925;28;20039;-72
2023/01/21 01:15:09;;;;;;;54.03;33.78;;;-0.80;99.90;;;;;;5092424;28;20035;-68
2023/01/21 01:17:35;;;;;;;53.97;35.15;;;-0.80;99.90;;;;;;5105315;28;20114;-68
2023/01/21 01:20:01;;;;;;;52.33;33.70;;;-0.80;99.90;;;;;;5112348;28;20565;-69
2023/01/21 01:22:27;;;;;;;57.80;34.97;;;-0.80;99.90;;;;;;5112487;28;20493;-68
2023/01/21 01:24:52;;;;;;;52.85;35.80;;;-0.90;99.90;;;;;;5112226;28;20105;-69
2023/01/21 01:27:18;;;;;;;54.65;34.67;;;-0.90;99.90;;;;;;5100874;28;20101;-68
2023/01/21 01:29:44;;;;;;;50.22;33.30;;;-0.90;99.90;;;;;;5086111;28;20518;-72
2023/01/21 01:32:10;;;;;;;52.75;34.25;;;-0.90;99.90;;;;;;5079265;28;20047;-68
2023/01/21 01:34:36;;;;;;;54.60;34.50;;;-0.90;99.90;;;;;;5088171;28;20050;-68
2023/01/21 01:37:02;;;;;;;52.25;34.35;;;-0.90;99.90;;;;;;5092402;28;20056;-69
2023/01/21 01:39:28;;;;;;;51.67;33.95;;;-0.90;99.90;;;;;;5110885;28;20079;-69
2023/01/21 01:41:54;;;;;;;52.85;34.03;;;-0.70;99.90;;;;;;5090863;28;20079;-68
2023/01/21 01:44:57;;;;;;;51.20;33.53;;;-1.00;99.90;;;;;;5084411;28;20044;-69
2023/01/21 01:47:30;;;;;;;51.70;34.67;;;-1.00;99.90;;;;;;5095975;28;20099;-69
2023/01/21 01:49:56;;;;;;;53.72;34.47;;;-1.00;99.90;;;;;;5093573;28;20047;-69
2023/01/21 01:52:22;;;;;;;53.83;33.78;;;-1.00;99.90;;;;;;5098453;28;20425;-67
2023/01/21 01:54:52;;;;;;;57.22;35.13;;;-1.00;99.90;;;;;;5078227;28;20062;-71
2023/01/21 01:57:22;;;;;;;59.03;36.53;;;-1.00;99.90;;;;;;5071332;28;20055;-72
2023/01/21 01:59:48;;;;;;;59.90;36.20;;;-1.00;99.90;;;;;;5092545;28;20365;-72
2023/01/21 02:02:18;;;;;;;60.75;37.95;;;-1.10;99.90;;;;;;5112101;28;20042;-68
2023/01/21 02:04:50;;;;;;;60.20;36.63;;;-0.60;99.90;;;;;;5103539;28;20097;-68
2023/01/21 02:07:17;;;;;;;58.17;36.70;;;-1.10;99.90;;;;;;5093972;28;20055;-69
2023/01/21 02:09:43;;;;;;;61.33;36.00;;;-1.10;99.90;;;;;;5081326;28;20040;-68
2023/01/21 02:12:09;;;;;;;58.53;37.03;;;-1.00;99.90;;;;;;5083562;28;20142;-68
2023/01/21 02:14:41;;;;;;;56.80;36.17;;;-0.50;99.90;;;;;;5111887;28;20043;-69
2023/01/21 02:17:44;;;;;;;54.78;35.17;;;-1.00;99.90;;;;;;5085652;28;20048;-68
2023/01/21 02:20:44;;;;;;;62.35;36.28;;;-1.00;99.90;;;;;;5091191;28;20634;-68
2023/01/21 02:23:34;;;;;;;57.45;36.08;;;-1.00;99.90;;;;;;5062082;28;20060;-68
2023/01/21 02:26:09;;;;;;;58.42;34.80;;;-1.00;99.90;;;;;;5063903;28;20067;-68
2023/01/21 02:28:54;;;;;;;;;;;-1.00;99.90;;;;;;5074196;28;20106;-69
2023/01/21 02:31:29;;;;;;;;;;;-1.00;99.90;;;;;;5059748;28;20005;-68
2023/01/21 02:34:00;;;;;;;59.05;37.70;;;-1.00;99.90;;;;;;5075045;28;19920;-71
2023/01/21 02:36:54;;;;;;;62.55;37.15;;;-1.00;99.90;;;;;;5097340;28;20097;-68
2023/01/21 02:39:32;;;;;;;60.07;37.80;;;-1.10;99.90;;;;;;5082772;28;20044;-69
2023/01/21 02:42:00;;;;;;;58.97;35.28;;;-1.00;99.90;;;;;;5082898;28;20408;-69
2023/01/21 02:44:45;;;;;;;57.88;36.38;;;-1.00;99.90;;;;;;5090071;28;20060;-68
2023/01/21 02:47:44;;;;;;;63.33;36.78;;;-1.10;99.90;;;;;;5094736;28;20100;-70
2023/01/21 02:50:49;;;;;;;58.28;36.35;;;-1.10;99.90;;;;;;5105071;28;20051;-68
2023/01/21 02:53:23;;;;;;;56.85;35.75;;;-1.10;99.90;;;;;;5061211;28;20052;-69
2023/01/21 02:55:48;;;;;;;63.17;37.78;;;-0.60;99.90;;;;;;5081982;28;20047;-69
2023/01/21 02:58:17;;;;;;;60.88;37.97;;;-1.10;99.90;;;;;;5060383;28;20051;-69
2023/01/21 03:01:07;;;;;;;59.53;37.17;;;-0.50;99.90;;;;;;5096435;28;20381;-68
2023/01/21 03:03:39;;;;;;;58.97;37.20;;;-1.10;99.90;;;;;;5094514;28;20377;-69
2023/01/21 03:06:42;;;;;;;68.03;38.97;;;-1.10;99.90;;;;;;5089847;28;20146;-68
2023/01/21 03:09:16;;;;;;;59.15;36.47;;;-1.00;99.90;;;;;;5099879;28;20088;-67
2023/01/21 03:11:55;;;;;;;62.93;36.70;;;-1.00;99.90;;;;;;5092029;28;20048;-68
2023/01/21 03:17:34;;;;;;;61.83;37.50;;;-1.10;99.90;;;;;;5096052;28;20073;-69
2023/01/21 03:20:03;;;;;;;61.72;36.95;;;-1.10;99.90;;;;;;5088330;28;20126;-72
2023/01/21 03:22:32;;;;;;;64.07;37.47;;;-1.00;99.90;;;;;;5086470;28;20042;-70
2023/01/21 03:24:59;;;;;;;64.18;38.90;;;-1.00;99.90;;;;;;5089905;28;20048;-68
2023/01/21 03:27:27;;;;;;;64.28;38.85;;;-1.00;99.90;;;;;;5095837;28;20050;-68
2023/01/21 03:30:04;;;;;;;66.60;37.83;;;-0.60;99.90;;;;;;5110117;28;20058;-67
2023/01/21 03:32:33;;;;;;;62.60;38.88;;;-1.00;99.90;;;;;;5097723;28;20048;-67
2023/01/21 03:35:00;;;;;;;64.38;38.03;;;-1.00;99.90;;;;;;5079139;28;20113;-67
2023/01/21 03:37:28;;;;;;;61.30;36.60;;;-1.00;99.90;;;;;;5091107;28;20437;-67
2023/01/21 03:40:06;;;;;;;65.75;37.55;;;-1.00;99.90;;;;;;5110643;28;20071;-67
2023/01/21 03:42:32;;;;;;;64.65;38.10;;;-1.00;99.90;;;;;;5108571;28;20048;-67
2023/01/21 03:44:58;;;;;;;67.32;39.42;;;-0.90;99.90;;;;;;5108686;28;20082;-67
2023/01/21 03:47:34;;;;;;;64.50;38.70;;;-0.80;99.90;;;;;;5091919;28;20184;-67
2023/01/21 03:50:03;;;;;;;65.13;38.97;;;-0.80;99.90;;;;;;5110781;28;20126;-66
2023/01/21 03:52:29;;;;;;;62.40;39.70;;;-0.70;99.90;;;;;;5109511;28;20051;-68
2023/01/21 03:54:55;;;;;;;61.88;37.78;;;-0.50;99.90;;;;;;5097394;28;20044;-69
2023/01/21 03:57:21;;;;;;;62.45;38.40;;;-0.60;99.90;;;;;;5083469;28;20051;-68
2023/01/21 03:59:47;;;;;;;58.53;36.05;;;-0.60;99.90;;;;;;5096973;28;20099;-67
2023/01/21 04:02:18;;;;;;;56.92;36.67;;;-0.50;99.90;;;;;;5083757;28;20055;-67
2023/01/21 04:04:43;;;;;;;59.92;36.85;;;-0.50;99.90;;;;;;5084038;28;20461;-67
2023/01/21 04:07:09;;;;;;;59.33;36.20;;;0.10;99.90;;;;;;5103514;28;20039;-67
2023/01/21 04:09:34;;;;;;;61.22;37.60;;;-0.30;99.90;;;;;;5086541;28;20042;-68
2023/01/21 04:12:00;;;;;;;59.88;36.15;;;-0.40;99.90;;;;;;5082749;28;20047;-67
2023/01/21 04:14:26;;;;;;;59.70;37.00;;;-0.50;99.90;;;;;;5110659;28;20035;-68
2023/01/21 04:16:52;;;;;;;64.28;38.40;;;0.10;99.90;;;;;;5114022;28;20047;-68
2023/01/21 04:19:17;;;;;;;65.45;39.40;;;0.00;99.90;;;;;;5085300;28;20052;-66
2023/01/21 04:21:43;;;;;;;62.20;37.58;;;0.00;99.90;;;;;;5111367;28;20062;-66
2023/01/21 04:24:09;;;;;;;58.20;36.20;;;0.10;99.90;;;;;;5088224;28;20485;-71
2023/01/21 04:26:34;;;;;;;57.53;34.97;;;-0.30;99.90;;;;;;5113410;28;20404;-67
2023/01/21 04:29:00;;;;;;;59.83;36.80;;;-0.30;99.90;;;;;;5088275;28;20801;-67
2023/01/21 04:31:26;;;;;;;57.13;35.67;;;-0.30;99.90;;;;;;5072301;28;20052;-67
2023/01/21 04:33:51;;;;;;;62.60;36.75;;;-0.30;99.90;;;;;;5112405;28;20047;-67
2023/01/21 04:36:17;;;;;;;56.53;36.03;;;-0.30;99.90;;;;;;5087164;28;20040;-68
2023/01/21 04:38:43;;;;;;;57.05;35.67;;;-0.30;99.90;;;;;;5095536;28;20040;-68
2023/01/21 04:41:08;;;;;;;56.15;35.25;;;-0.20;99.90;;;;;;5067520;28;20048;-68
2023/01/21 04:43:34;;;;;;;61.83;37.13;;;-0.10;99.90;;;;;;5112086;28;20044;-67
2023/01/21 04:46:00;;;;;;;69.35;40.67;;;-0.30;99.90;;;;;;5112267;28;20048;-67
2023/01/21 04:48:25;;;;;;;85.65;51.95;;;-0.30;99.90;;;;;;5111078;28;20120;-67
2023/01/21 04:50:51;;;;;;;102.55;56.50;;;-0.40;99.90;;;;;;5108478;28;20516;-67
2023/01/21 04:53:16;;;;;;;115.47;64.60;;;-0.30;99.90;;;;;;5074746;28;20048;-69
2023/01/21 04:55:42;;;;;;;107.90;61.63;;;-0.40;99.90;;;;;;5106738;28;20119;-67
2023/01/21 04:58:08;;;;;;;92.55;54.60;;;-0.40;99.90;;;;;;5102638;28;20066;-67
2023/01/21 05:00:33;;;;;;;88.38;53.08;;;-0.40;99.90;;;;;;5072717;28;20693;-68
2023/01/21 05:02:59;;;;;;;87.38;51.88;;;-0.40;99.90;;;;;;5108810;28;20396;-67
2023/01/21 05:05:25;;;;;;;82.05;49.55;;;-0.40;99.90;;;;;;5111709;28;20134;-68
2023/01/21 05:07:54;;;;;;;77.32;47.10;;;-0.40;99.90;;;;;;5088780;28;20072;-69
2023/01/21 05:10:20;;;;;;;69.03;41.42;;;-0.30;99.90;;;;;;5104330;28;20401;-67
2023/01/21 05:12:47;;;;;;;76.55;43.92;;;-0.30;99.90;;;;;;5111151;28;20047;-66
2023/01/21 05:15:13;;;;;;;67.88;41.42;;;-0.40;99.90;;;;;;5091828;28;20052;-67
2023/01/21 05:17:38;;;;;;;69.78;42.05;;;-0.50;99.90;;;;;;5106837;28;20322;-68
2023/01/21 05:20:05;;;;;;;64.88;40.70;;;-0.50;99.90;;;;;;5100887;28;20043;-67
2023/01/21 05:22:30;;;;;;;62.72;40.33;;;-0.50;99.90;;;;;;5091102;28;20067;-69
2023/01/21 05:24:58;;;;;;;65.38;39.63;;;-0.50;99.90;;;;;;5094606;28;20485;-68
2023/01/21 05:27:24;;;;;;;68.50;41.78;;;-0.10;99.90;;;;;;5079810;28;20115;-69
2023/01/21 05:29:49;;;;;;;67.15;41.80;;;-0.50;99.90;;;;;;5110568;28;20177;-68
2023/01/21 05:32:15;;;;;;;67.10;40.60;;;0.00;99.90;;;;;;5072442;28;20390;-66
2023/01/21 05:34:40;;;;;;;68.85;40.85;;;-0.20;99.90;;;;;;5088134;28;20594;-67
2023/01/21 05:37:06;;;;;;;63.47;39.03;;;-0.60;99.90;;;;;;5099989;28;20060;-67
2023/01/21 05:39:32;;;;;;;61.92;39.58;;;-0.60;99.90;;;;;;5095863;28;20091;-69
2023/01/21 05:41:58;;;;;;;61.67;38.33;;;-0.10;99.90;;;;;;5112593;28;20389;-68
2023/01/21 05:44:23;;;;;;;61.13;38.28;;;-0.40;99.90;;;;;;5073732;28;20119;-67
2023/01/21 05:46:49;;;;;;;58.83;37.55;;;-0.10;99.90;;;;;;5061830;28;20044;-67
2023/01/21 05:49:15;;;;;;;57.38;37.08;;;-0.80;99.90;;;;;;5087787;28;20063;-67
2023/01/21 05:51:40;;;;;;;61.22;38.35;;;-0.90;99.90;;;;;;5087175;28;20079;-67
2023/01/21 05:54:07;;;;;;;61.63;38.47;;;-0.90;99.90;;;;;;5110201;28;20085;-67
2023/01/21 05:56:32;;;;;;;63.20;38.15;;;-0.90;99.90;;;;;;5111776;28;20105;-67
2023/01/21 05:58:58;;;;;;;62.60;37.83;;;-1.00;99.90;;;;;;5086259;28;20563;-66
2023/01/21 06:01:24;;;;;;;59.47;37.70;;;-1.00;99.90;;;;;;5111365;28;20047;-73
2023/01/21 06:03:49;;;;;;;61.28;37.65;;;-1.00;99.90;;;;;;5081136;28;20048;-67
2023/01/21 06:06:15;;;;;;;57.67;36.40;;;-1.10;99.90;;;;;;5105357;28;20044;-67
2023/01/21 06:08:41;;;;;;;60.22;36.78;;;-0.80;99.90;;;;;;5102933;28;20096;-67
2023/01/21 06:11:06;;;;;;;61.95;39.63;;;-1.10;99.90;;;;;;5098035;28;20043;-67
2023/01/21 06:13:32;;;;;;;59.35;37.60;;;-1.20;99.90;;;;;;5089750;28;20459;-67
2023/01/21 06:15:58;;;;;;;59.55;37.92;;;-1.10;99.90;;;;;;5087265;28;20047;-67
2023/01/21 06:18:24;;;;;;;61.83;38.42;;;-1.20;99.90;;;;;;5080868;28;20078;-66
2023/01/21 06:20:49;;;;;;;62.60;37.22;;;-1.20;99.90;;;;;;5106356;28;20048;-73
2023/01/21 06:23:15;;;;;;;64.82;37.60;;;-1.20;99.90;;;;;;5111716;28;20046;-67
2023/01/21 06:25:42;;;;;;;62.25;37.55;;;-1.20;99.90;;;;;;5111228;28;20074;-67
2023/01/21 06:28:10;;;;;;;58.13;36.60;;;-1.20;99.90;;;;;;5108789;28;20039;-70
2023/01/21 06:30:36;;;;;;;61.90;38.30;;;-1.20;99.90;;;;;;5100070;28;20062;-69
2023/01/21 06:33:02;;;;;;;63.60;38.33;;;-1.10;99.90;;;;;;5078398;28;20048;-68
2023/01/21 06:35:28;;;;;;;60.97;37.58;;;-1.20;99.90;;;;;;5099612;28;20051;-72
2023/01/21 06:37:53;;;;;;;59.50;36.17;;;-0.50;99.90;;;;;;5111122;28;20067;-67
2023/01/21 06:40:19;;;;;;;57.63;36.78;;;-0.90;99.90;;;;;;5107208;28;20052;-67
2023/01/21 06:42:46;;;;;;;61.05;37.42;;;-1.20;99.90;;;;;;5110762;28;20112;-69
2023/01/21 06:45:13;;;;;;;57.78;36.55;;;-0.80;99.90;;;;;;5111094;28;20086;-68
2023/01/21 06:47:41;;;;;;;62.33;37.72;;;-1.30;99.90;;;;;;5091004;28;20162;-68
2023/01/21 06:50:11;;;;;;;59.78;36.72;;;-1.30;99.90;;;;;;5109610;27;20043;-70
2023/01/21 06:52:38;;;;;;;59.72;36.83;;;-1.30;99.90;;;;;;5102180;28;20078;-66
2023/01/21 06:55:04;;;;;;;63.63;38.83;;;-1.40;99.90;;;;;;5100614;28;20043;-67
2023/01/21 06:57:30;;;;;;;60.50;37.05;;;-1.40;99.90;;;;;;5081564;28;20497;-74
2023/01/21 06:59:55;;;;;;;57.63;35.10;;;-1.00;99.90;;;;;;5098578;28;20059;-68
2023/01/21 07:02:21;;;;;;;60.70;38.40;;;-1.40;99.90;;;;;;5094073;28;20044;-69
2023/01/21 07:04:49;;;;;;;61.95;37.63;;;-1.40;99.90;;;;;;5080109;28;20062;-68
2023/01/21 07:07:15;;;;;;;62.53;37.67;;;-1.40;99.90;;;;;;5075334;28;20043;-68
2023/01/21 07:09:41;;;;;;;57.88;37.78;;;-1.50;99.90;;;;;;5091093;28;20119;-68
2023/01/21 07:12:06;;;;;;;60.80;36.40;;;-1.50;99.90;;;;;;5090914;28;20051;-67
2023/01/21 07:14:32;;;;;;;58.10;35.90;;;-1.50;99.90;;;;;;5110464;28;20090;-68
2023/01/21 07:16:58;;;;;;;57.17;35.40;;;-1.50;99.90;;;;;;5107512;28;21835;-67
2023/01/21 07:19:23;;;;;;;53.47;33.72;;;-1.00;99.90;;;;;;5063900;28;20040;-68
2023/01/21 07:21:49;;;;;;;58.00;35.35;;;-1.50;99.90;;;;;;5088184;28;20055;-68
2023/01/21 07:24:15;;;;;;;54.88;34.53;;;-1.50;99.90;;;;;;5076568;28;20051;-69
2023/01/21 07:26:42;;;;;;;55.28;34.38;;;-1.50;99.90;;;;;;5076367;28;20102;-67
2023/01/21 07:29:08;;;;;;;56.05;35.38;;;-1.50;99.90;;;;;;5097137;28;20052;-68
2023/01/21 07:31:33;;;;;;;58.47;37.03;;;-1.50;99.90;;;;;;5085386;28;20048;-68
2023/01/21 07:34:00;;;;;;;55.28;35.95;;;-1.50;99.90;;;;;;5102208;28;20403;-67
2023/01/21 07:36:26;;;;;;;55.70;36.13;;;-1.50;99.90;;;;;;5109521;28;20055;-69
2023/01/21 07:38:52;;;;;;;53.67;35.60;;;-1.50;99.90;;;;;;5080017;28;20469;-68
2023/01/21 07:41:18;;;;;;;63.88;37.97;;;-1.50;99.90;;;;;;5091605;28;20195;-68
2023/01/21 07:43:48;;;;;;;62.45;37.88;;;-1.60;99.90;;;;;;5108155;28;20036;-69
2023/01/21 07:46:16;;;;;;;62.92;38.42;;;-1.50;99.90;;;;;;5096601;28;20118;-66
2023/01/21 07:48:42;;;;;;;64.25;38.78;;;-1.50;99.90;;;;;;5095733;28;20051;-67
2023/01/21 07:51:07;;;;;;;61.53;38.63;;;-1.40;99.90;;;;;;5110419;28;20482;-68
2023/01/21 07:53:33;;;;;;;62.58;38.67;;;-1.40;99.90;;;;;;5070754;28;20080;-68
2023/01/21 07:56:03;;;;;;;63.15;37.28;;;-1.40;99.90;;;;;;5088303;28;20032;-68
2023/01/21 07:58:29;;;;;;;56.00;35.08;;;-1.40;99.90;;;;;;5059341;28;20109;-67
2023/01/21 08:00:55;;;;;;;55.28;35.83;;;-1.30;99.90;;;;;;5107535;28;20100;-67
2023/01/21 08:03:22;;;;;;;62.00;35.92;;;-1.30;99.90;;;;;;5104385;28;20039;-69
2023/01/21 08:05:47;;;;;;;56.92;35.58;;;-1.40;99.90;;;;;;5112742;28;20047;-68
2023/01/21 08:08:13;;;;;;;58.05;37.05;;;-1.40;99.90;;;;;;5111451;28;20172;-67
2023/01/21 08:10:39;;;;;;;57.40;37.22;;;-1.40;99.90;;;;;;5099908;28;20047;-67
2023/01/21 08:13:06;;;;;;;58.13;36.75;;;-1.30;99.90;;;;;;5113644;28;20469;-68
2023/01/21 08:15:32;;;;;;;62.65;37.20;;;-1.40;99.90;;;;;;5085909;28;20080;-67
2023/01/21 08:17:58;;;;;;;56.88;35.70;;;-1.30;99.90;;;;;;5104014;28;20067;-67
2023/01/21 08:20:24;;;;;;;63.78;36.80;;;-1.00;99.90;;;;;;5091815;28;20036;-67
2023/01/21 08:22:49;;;;;;;57.90;35.75;;;-1.30;99.90;;;;;;5103523;28;20035;-68
2023/01/21 08:25:15;;;;;;;57.30;35.90;;;-1.30;99.90;;;;;;5065361;28;20384;-66
2023/01/21 08:27:41;;;;;;;59.97;36.30;;;-1.40;99.90;;;;;;5082361;28;20056;-67
2023/01/21 08:30:07;;;;;;;61.05;37.38;;;-1.40;99.90;;;;;;5104066;28;20094;-67
2023/01/21 08:32:33;;;;;;;63.38;40.42;;;-1.40;99.90;;;;;;5112886;28;20043;-68
2023/01/21 08:34:58;;;;;;;65.25;41.35;;;-1.30;99.90;;;;;;5101223;28;20354;-67
2023/01/21 08:37:24;;;;;;;65.32;41.45;;;-1.30;99.90;;;;;;5080345;28;20048;-68
2023/01/21 08:39:50;;;;;;;61.00;39.55;;;-1.30;99.90;;;;;;5094640;28;20472;-67
2023/01/21 08:42:16;;;;;;;62.20;39.60;;;-1.20;99.90;;;;;;5113322;28;20079;-66
2023/01/21 08:44:41;;;;;;;59.90;38.17;;;-1.20;99.90;;;;;;5113240;28;20051;-68
2023/01/21 08:47:07;;;;;;;66.00;39.67;;;-1.20;99.90;;;;;;5106317;28;20035;-68
2023/01/21 08:49:32;;;;;;;62.17;40.40;;;-1.10;99.90;;;;;;5113216;28;20050;-68
2023/01/21 08:51:58;;;;;;;62.67;38.30;;;-1.10;99.90;;;;;;5080229;28;20062;-69
2023/01/21 08:54:24;;;;;;;61.40;38.72;;;-0.50;99.90;;;;;;5105706;28;20039;-68
2023/01/21 08:56:50;;;;;;;61.97;39.65;;;-1.00;99.90;;;;;;5086454;28;20054;-73
2023/01/21 08:59:15;;;;;;;63.17;40.47;;;-1.00;99.90;;;;;;5088337;28;20036;-67
2023/01/21 09:01:42;;;;;;;61.05;38.85;;;-1.00;99.90;;;;;;5112548;28;20122;-68
2023/01/21 09:04:08;;;;;;;59.47;40.38;;;-0.90;99.90;;;;;;5109867;28;20036;-67
2023/01/21 09:06:34;;;;;;;62.47;41.15;;;-0.90;99.90;;;;;;5102608;28;20098;-69
2023/01/21 09:09:00;;;;;;;60.53;40.10;;;-0.80;99.90;;;;;;5093379;28;20055;-67
2023/01/21 09:11:28;;;;;;;61.42;40.38;;;-0.80;99.90;;;;;;5091369;28;20031;-68
2023/01/21 09:13:56;;;;;;;61.70;41.47;;;-0.80;99.90;;;;;;5112441;28;20047;-66
2023/01/21 09:16:22;;;;;;;63.50;39.33;;;-0.60;99.90;;;;;;5112845;28;20103;-68
2023/01/21 09:18:48;;;;;;;63.70;40.10;;;-0.70;99.90;;;;;;5108308;28;20035;-67
2023/01/21 09:21:15;;;;;;;58.55;38.28;;;-0.30;99.90;;;;;;5112121;28;20043;-68
2023/01/21 09:23:41;;;;;;;58.88;36.40;;;-0.10;99.90;;;;;;5108444;28;20040;-69
2023/01/21 09:26:19;;;;;;;62.42;38.97;;;-0.70;99.90;;;;;;5112087;28;20096;-70
2023/01/21 09:28:52;;;;;;;62.83;38.58;;;-0.70;99.90;;;;;;5088700;28;20048;-68
2023/01/21 09:31:20;;;;;;;62.03;38.67;;;-0.60;99.90;;;;;;5108552;28;20052;-68
2023/01/21 09:33:48;;;;;;;60.00;38.15;;;-0.10;99.90;;;;;;5112608;28;20043;-69
2023/01/21 09:36:20;;;;;;;60.28;37.22;;;-0.60;99.90;;;;;;5110097;28;20059;-68
2023/01/21 09:38:47;;;;;;;58.25;38.05;;;-0.60;99.90;;;;;;5099056;28;20143;-68
2023/01/21 09:41:37;;;;;;;60.65;39.08;;;-0.50;99.90;;;;;;5111331;28;20039;-68
2023/01/21 09:44:25;;;;;;;60.05;38.25;;;-0.50;99.90;;;;;;5100888;28;20093;-68
2023/01/21 09:47:24;;;;;;;66.75;40.55;;;-0.50;99.90;;;;;;5109280;28;20039;-68
2023/01/21 09:49:52;;;;;;;66.53;40.20;;;-0.50;99.90;;;;;;5111958;27;20114;-69
2023/01/21 09:52:51;;;;;;;66.60;41.47;;;0.20;99.90;;;;;;5111044;28;20073;-67
2023/01/21 09:55:22;;;;;;;65.38;39.67;;;-0.40;99.90;;;;;;5103022;28;20122;-68
2023/01/21 09:58:15;;;;;;;61.33;38.70;;;-0.30;99.90;;;;;;5106459;28;20047;-69
2023/01/21 10:00:53;;;;;;;63.50;38.97;;;-0.20;99.90;;;;;;5094491;28;20043;-68
2023/01/21 10:03:36;;;;;;;64.63;39.33;;;0.00;99.90;;;;;;5078580;28;20423;-68
2023/01/21 10:06:27;;;;;;;59.83;38.35;;;0.00;99.90;;;;;;5098309;28;20043;-68
2023/01/21 10:09:11;;;;;;;68.13;38.40;;;0.10;99.90;;;;;;5118643;27;20054;-69
2023/01/21 10:11:55;;;;;;;56.53;35.47;;;0.10;99.90;;;;;;5089944;28;20051;-68
2023/01/21 10:15:09;;;;;;;56.40;35.58;;;0.30;99.90;;;;;;5103659;28;20048;-68
2023/01/21 10:17:41;;;;;;;54.22;33.30;;;0.40;99.90;;;;;;5101627;28;20051;-68
2023/01/21 10:20:45;;;;;;;57.25;34.00;;;0.50;99.90;;;;;;5104584;28;20135;-67
2023/01/21 10:23:34;;;;;;;51.35;31.15;;;0.50;99.90;;;;;;5036204;28;20499;-68
2023/01/21 10:26:08;;;;;;;52.40;32.78;;;0.60;99.90;;;;;;5085912;28;20068;-68
2023/01/21 10:28:37;;;;;;;52.38;31.45;;;0.60;99.90;;;;;;5083682;28;20051;-68
2023/01/21 10:31:20;;;;;;;49.60;29.88;;;0.70;99.90;;;;;;5079839;28;20409;-73
2023/01/21 10:33:45;;;;;;;47.38;29.98;;;0.70;99.90;;;;;;5096363;28;20067;-67
2023/01/21 10:36:30;;;;;;;44.65;28.42;;;0.80;99.90;;;;;;5076446;28;20052;-69
2023/01/21 10:39:15;;;;;;;43.00;27.08;;;0.90;99.90;;;;;;5104949;28;20497;-69
2023/01/21 10:42:18;;;;;;;40.15;26.40;;;1.00;99.90;;;;;;5107553;28;20092;-67
2023/01/21 10:45:14;;;;;;;40.55;25.75;;;1.30;99.90;;;;;;5060275;28;20043;-67
2023/01/21 10:48:07;;;;;;;35.72;23.77;;;1.20;99.90;;;;;;5110024;28;20119;-67
2023/01/21 10:51:14;;;;;;;33.55;22.75;;;1.30;99.90;;;;;;5092446;28;21445;-68
2023/01/21 10:53:57;;;;;;;28.95;19.65;;;1.40;99.90;;;;;;5106955;28;20581;-67
2023/01/21 10:56:23;;;;;;;29.75;19.90;;;1.50;99.90;;;;;;5109632;28;20389;-69
2023/01/21 10:58:54;;;;;;;26.35;19.20;;;1.60;99.90;;;;;;5108645;28;20055;-68
2023/01/21 11:01:41;;;;;;;28.27;18.90;;;1.60;99.90;;;;;;5109823;28;20088;-65
2023/01/21 11:04:21;;;;;;;28.40;19.30;;;1.70;99.90;;;;;;5097245;28;20503;-75
2023/01/21 11:06:59;;;;;;;29.10;19.08;;;1.80;99.90;;;;;;5107392;28;20044;-70
2023/01/21 11:09:41;;;;;;;27.05;18.27;;;1.80;99.90;;;;;;5109233;28;20052;-70
2023/01/21 11:12:12;;;;;;;26.10;17.70;;;1.90;99.90;;;;;;5109899;28;20055;-72
2023/01/21 11:14:38;;;;;;;25.92;18.85;;;2.00;99.90;;;;;;5108296;28;20139;-68
2023/01/21 11:17:04;;;;;;;28.83;18.40;;;2.00;99.90;;;;;;5088972;28;20071;-69
2023/01/21 11:19:30;;;;;;;22.88;16.60;;;2.00;99.90;;;;;;5090901;28;20092;-70
2023/01/21 11:22:18;;;;;;;28.20;16.33;;;2.20;99.90;;;;;;5109712;28;20048;-70
2023/01/21 11:24:50;;;;;;;22.92;16.55;;;2.10;99.90;;;;;;5109101;28;20043;-67
2023/01/21 11:27:30;;;;;;;24.40;16.67;;;2.20;99.90;;;;;;5107171;28;20039;-68
2023/01/21 11:29:56;;;;;;;25.95;15.18;;;2.20;99.90;;;;;;5093939;28;20427;-69
2023/01/21 11:32:24;;;;;;;23.50;15.40;;;2.20;99.90;;;;;;5077146;28;20054;-69
2023/01/21 11:35:16;;;;;;;23.73;15.73;;;2.30;99.90;;;;;;5108502;28;20141;-69
2023/01/21 11:37:44;;;;;;;22.10;15.48;;;2.30;99.90;;;;;;5088182;28;20272;-72
2023/01/21 11:40:24;;;;;;;20.75;14.52;;;2.40;99.90;;;;;;5113918;28;20180;-73
2023/01/21 11:42:51;;;;;;;21.77;15.02;;;2.40;99.90;;;;;;5090110;28;20200;-69
2023/01/21 11:45:30;;;;;;;24.25;15.05;;;2.60;99.90;;;;;;5091707;28;20098;-70
2023/01/21 11:47:57;;;;;;;20.40;14.15;;;2.50;99.90;;;;;;5114260;28;20374;-67
2023/01/21 11:50:36;;;;;;;19.77;13.93;;;2.50;99.90;;;;;;5078508;28;20080;-69
2023/01/21 11:53:18;;;;;;;21.63;14.30;;;2.50;99.90;;;;;;5092965;28;20048;-69
2023/01/21 11:55:56;;;;;;;19.55;13.55;;;2.60;99.90;;;;;;5097102;28;20501;-70
2023/01/21 11:58:31;;;;;;;17.25;12.13;;;2.60;99.90;;;;;;5098554;28;20040;-70
2023/01/21 12:01:03;;;;;;;17.15;13.15;;;2.70;99.90;;;;;;5112603;28;20043;-69
2023/01/21 12:03:41;;;;;;;20.10;13.20;;;2.70;99.90;;;;;;5113976;28;20105;-69
2023/01/21 12:06:08;;;;;;;17.90;11.13;;;2.80;99.90;;;;;;5098533;28;20051;-69
2023/01/21 12:08:36;;;;;;;14.73;10.98;;;2.80;99.90;;;;;;5108158;27;20079;-68
2023/01/21 12:11:05;;;;;;;13.18;9.13;;;2.90;99.90;;;;;;5097365;28;20051;-69
2023/01/21 12:13:37;;;;;;;13.65;10.02;;;2.90;99.90;;;;;;5100005;28;20085;-69
2023/01/21 12:16:23;;;;;;;12.10;8.88;;;3.00;99.90;;;;;;5099383;28;20052;-70
2023/01/21 12:18:54;;;;;;;11.85;8.35;;;3.10;99.90;;;;;;5095343;28;20076;-70
2023/01/21 12:21:45;;;;;;;9.48;6.63;;;3.10;99.90;;;;;;5109662;28;20089;-69
2023/01/21 12:24:11;;;;;;;11.25;7.25;;;3.10;99.90;;;;;;5112132;28;20151;-68
2023/01/21 12:26:44;;;;;;;10.73;7.22;;;3.20;99.90;;;;;;5107002;28;20048;-68
2023/01/21 12:29:28;;;;;;;10.13;7.43;;;3.20;99.90;;;;;;5088061;28;20048;-73
2023/01/21 12:32:06;;;;;;;9.38;6.60;;;3.20;99.90;;;;;;5110014;28;20109;-69
2023/01/21 12:34:46;;;;;;;7.63;5.97;;;3.20;99.90;;;;;;5112671;28;20506;-68
2023/01/21 12:37:23;;;;;;;9.80;6.32;;;3.20;99.90;;;;;;5102887;28;20052;-67
2023/01/21 12:39:52;;;;;;;8.05;5.95;;;3.30;99.90;;;;;;5108235;28;20409;-69
2023/01/21 12:42:25;;;;;;;8.52;5.97;;;3.30;99.90;;;;;;5074978;28;20052;-68
2023/01/21 12:45:01;;;;;;;9.50;6.82;;;3.30;99.90;;;;;;5105574;28;20040;-69
2023/01/21 12:47:42;;;;;;;10.50;6.65;;;3.30;99.90;;;;;;5107521;28;20063;-69
2023/01/21 12:50:34;;;;;;;8.55;6.50;;;3.30;99.90;;;;;;5110344;28;20065;-68
2023/01/21 12:53:03;;;;;;;8.00;5.75;;;3.30;99.90;;;;;;5108371;28;20499;-69